KBDL/BDL METAR and TAF weather

Enter ICAO airport designator
Station Type Date Time Source
KBDL METAR 2022/01/23 10:51 UTC NOAA

KBDL 231051Z 17006KT 10SM FEW130 BKN180 M08/M13 A2993 RMK AO2 SLP138 T10831133


Station Type Date Time Source
KBDL Decoded METAR 2022/01/23 10:51 UTC NOAA

BRADLEY INTERNATIONAL AIRPORT , CT, United States (KBDL) 41-56N 072-41W 60M
Jan 23, 2022 - 05:51 AM EST / 2022.01.23 1051 UTC
Wind: from the S (170 degrees) at 7 MPH (6 KT):0
Visibility: 10 mile(s):0
Sky conditions: mostly cloudy
Temperature: 17.1 F (-8.3 C)
Windchill: 6 F (-14 C):1
Dew Point: 8.1 F (-13.3 C)
Relative Humidity: 67%
Pressure (altimeter): 29.93 in. Hg (1013 hPa)
ob: KBDL 231051Z 17006KT 10SM FEW130 BKN180 M08/M13 A2993 RMK AO2 SLP138 T10831133
cycle: 11

Station Type Date Time Source
KBDL TAF 2022/01/23 12:30 UTC NOAA

TAF KBDL 231129Z 2312/2418 22003KT P6SM BKN080
FM231500 23008KT P6SM BKN080
FM240000 25005KT P6SM VCSH OVC035
FM240300 29003KT P6SM BKN035

Example: see airport list